Hunt, New York
Current Conditions -  °F | °C
As of 1:54 AM on Saturday 25 Oct 2014 (Local Time) from KDSV Reporting Station
Overcast Overcast  
Wind Chill: 44°   Ceiling: 7000
Heat Index: 44°   Visibility: 10mi
Dew Point: 40°   Wind: 0mph
Humidity: 85%   Direction: NA
Pressure: 29.93"   Gusts: NA
Location:  42.55°N, 77.99°W
Report Text: KDSV 250554Z AUTO 00000KT 10SM OVC070 07/04 A2993 RMK AO2 SLP146 T00670044 10089 20039 56010
Loading
Personal Weather Stations






























Interactive Weather Map
Tropical Storm Tracking
New forecast layout! Learn more

10-Day Weather Forecast

Advertisements
Track Severe Weather on mobile